createdAt,value
2023-09-08T00:00:26.474Z,101897.75
2023-09-08T00:02:53.256Z,101902.47
2023-09-08T00:05:19.897Z,101903.50
2023-09-08T00:07:46.620Z,101899.97
2023-09-08T00:10:13.355Z,101899.16
2023-09-08T00:12:40.461Z,101903.81
2023-09-08T00:15:08.156Z,101895.81
2023-09-08T00:17:34.880Z,101896.69
2023-09-08T00:20:01.669Z,101887.66
2023-09-08T00:22:28.404Z,101892.13
2023-09-08T00:24:56.044Z,101890.38
2023-09-08T00:27:22.743Z,101897.81
2023-09-08T00:29:49.444Z,101894.38
2023-09-08T00:32:17.104Z,101889.91
2023-09-08T00:34:44.571Z,101890.84
2023-09-08T00:37:11.686Z,101886.47
2023-09-08T00:39:40.242Z,101877.59
2023-09-08T00:42:08.132Z,101882.16
2023-09-08T00:44:35.294Z,101892.31
2023-09-08T00:47:02.037Z,101883.34
2023-09-08T00:49:29.759Z,101876.16
2023-09-08T00:51:56.870Z,101889.75
2023-09-08T00:54:23.558Z,101891.66
2023-09-08T00:56:56.545Z,101884.56
2023-09-08T00:59:23.627Z,101887.34
2023-09-08T01:01:50.359Z,101887.50
2023-09-08T01:04:17.330Z,101886.72
2023-09-08T01:06:46.227Z,101883.19
2023-09-08T01:09:14.453Z,101875.03
2023-09-08T01:11:41.314Z,101878.72
2023-09-08T01:14:08.836Z,101878.88
2023-09-08T01:16:35.909Z,101878.72
2023-09-08T01:19:05.932Z,101876.06
2023-09-08T01:22:08.229Z,101868.00
2023-09-08T01:24:56.670Z,101869.94
2023-09-08T01:27:26.136Z,101858.41
2023-09-08T01:29:55.076Z,101875.84
2023-09-08T01:32:22.174Z,101866.88
2023-09-08T01:34:48.916Z,101876.03
2023-09-08T01:37:15.604Z,101874.19
2023-09-08T01:39:42.246Z,101880.75
2023-09-08T01:42:08.950Z,101879.94
2023-09-08T01:44:37.281Z,101870.13
2023-09-08T01:47:04.178Z,101870.25
2023-09-08T01:49:30.842Z,101878.50
2023-09-08T01:51:58.993Z,101877.69
2023-09-08T01:54:25.732Z,101875.94
2023-09-08T01:56:52.530Z,101873.28
2023-09-08T01:59:19.226Z,101871.63
2023-09-08T02:01:45.993Z,101867.28
2023-09-08T02:04:12.757Z,101873.81
2023-09-08T02:06:39.501Z,101866.75
2023-09-08T02:09:06.144Z,101866.84
2023-09-08T02:11:32.810Z,101871.47
2023-09-08T02:13:59.936Z,101876.09
2023-09-08T02:16:26.776Z,101872.66
2023-09-08T02:18:53.537Z,101877.19
2023-09-08T02:21:20.731Z,101867.22
2023-09-08T02:23:47.387Z,101865.63
2023-09-08T02:26:14.224Z,101857.69
2023-09-08T02:28:41.043Z,101857.03
2023-09-08T02:31:08.017Z,101856.25
2023-09-08T02:33:34.756Z,101860.78
2023-09-08T02:36:08.491Z,101865.34
2023-09-08T02:38:38.693Z,101875.31
2023-09-08T02:41:06.061Z,101867.25
2023-09-08T02:43:32.799Z,101864.56
2023-09-08T02:45:59.553Z,101863.75
2023-09-08T02:48:26.698Z,101869.34
2023-09-08T02:50:54.987Z,101877.63
2023-09-08T02:53:21.936Z,101870.44
2023-09-08T02:55:48.562Z,101871.47
2023-09-08T02:58:15.298Z,101873.38
2023-09-08T03:00:41.951Z,101873.38
2023-09-08T03:03:09.133Z,101871.63
2023-09-08T03:05:36.532Z,101871.69
2023-09-08T03:08:03.502Z,101872.66
2023-09-08T03:10:30.398Z,101875.34
2023-09-08T03:12:57.915Z,101865.53
2023-09-08T03:15:24.717Z,101859.31
2023-09-08T03:17:51.480Z,101869.41
2023-09-08T03:20:18.279Z,101865.03
2023-09-08T03:22:45.002Z,101868.75
2023-09-08T03:25:11.655Z,101871.47
2023-09-08T03:27:38.406Z,101876.91
2023-09-08T03:30:05.791Z,101870.66
2023-09-08T03:32:33.047Z,101871.63
2023-09-08T03:35:00.906Z,101870.81
2023-09-08T03:37:28.025Z,101868.09
2023-09-08T03:39:54.761Z,101876.22
2023-09-08T03:42:21.731Z,101868.09
2023-09-08T03:44:48.914Z,101871.75
2023-09-08T03:47:15.791Z,101865.44
2023-09-08T03:49:42.561Z,101866.47
2023-09-08T03:52:09.273Z,101868.38
2023-09-08T03:54:35.953Z,101864.84
2023-09-08T03:57:02.651Z,101864.94
2023-09-08T03:59:29.280Z,101865.00
2023-09-08T04:01:55.980Z,101868.66
2023-09-08T04:04:23.306Z,101862.44
2023-09-08T04:06:50.024Z,101860.75
2023-09-08T04:09:16.814Z,101859.94
2023-09-08T04:11:43.545Z,101861.91
2023-09-08T04:14:10.275Z,101865.50
2023-09-08T04:16:37.099Z,101853.78
2023-09-08T04:19:04.911Z,101855.53
2023-09-08T04:21:31.968Z,101856.50
2023-09-08T04:23:58.723Z,101861.09
2023-09-08T04:26:26.064Z,101865.56
2023-09-08T04:28:52.768Z,101869.22
2023-09-08T04:31:20.649Z,101867.47
2023-09-08T04:33:47.421Z,101860.28
2023-09-08T04:36:14.616Z,101859.41
2023-09-08T04:38:42.803Z,101862.19
2023-09-08T04:41:10.675Z,101857.75
2023-09-08T04:43:37.549Z,101861.41
2023-09-08T04:46:04.889Z,101865.97
2023-09-08T04:48:32.175Z,101858.78
2023-09-08T04:50:59.269Z,101864.19
2023-09-08T04:53:26.620Z,101873.28
2023-09-08T04:55:53.421Z,101868.81
2023-09-08T04:58:20.169Z,101868.06
2023-09-08T05:00:47.575Z,101875.31
2023-09-08T05:03:14.384Z,101872.75
2023-09-08T05:05:41.268Z,101876.41
2023-09-08T05:08:08.106Z,101877.38
2023-09-08T05:10:35.635Z,101884.69
2023-09-08T05:13:02.354Z,101885.69
2023-09-08T05:15:29.289Z,101888.41
2023-09-08T05:17:56.014Z,101889.44
2023-09-08T05:20:23.525Z,101886.84
2023-09-08T05:22:50.447Z,101890.44
2023-09-08T05:25:17.928Z,101891.38
2023-09-08T05:27:46.821Z,101898.56
2023-09-08T05:30:14.076Z,101894.97
2023-09-08T05:32:41.602Z,101895.06
2023-09-08T05:35:09.277Z,101893.28
2023-09-08T05:37:36.014Z,101897.84
2023-09-08T05:40:04.842Z,101896.06
2023-09-08T05:42:31.664Z,101901.50
2023-09-08T05:44:58.420Z,101901.50
2023-09-08T05:47:25.161Z,101910.56
2023-09-08T05:49:52.614Z,101910.59
2023-09-08T05:52:19.454Z,101912.44
2023-09-08T05:54:47.250Z,101911.47
2023-09-08T05:57:32.612Z,101912.44
2023-09-08T05:59:59.565Z,101905.25
2023-09-08T06:02:26.428Z,101908.03
2023-09-08T06:04:53.129Z,101902.59
2023-09-08T06:07:19.869Z,101900.84
2023-09-08T06:09:46.629Z,101905.31
2023-09-08T06:12:13.452Z,101909.78
2023-09-08T06:14:42.065Z,101902.53
2023-09-08T06:17:11.246Z,101904.38
2023-09-08T06:19:38.068Z,101905.25
2023-09-08T06:22:04.878Z,101904.38
2023-09-08T06:24:31.844Z,101908.84
2023-09-08T06:26:58.802Z,101909.78
2023-09-08T06:29:25.569Z,101910.66
2023-09-08T06:31:52.316Z,101910.59
2023-09-08T06:34:22.780Z,101907.88
2023-09-08T06:36:50.485Z,101906.06
2023-09-08T06:39:17.305Z,101899.72
2023-09-08T06:41:44.205Z,101901.50
2023-09-08T06:44:14.755Z,101910.50
2023-09-08T06:46:41.828Z,101910.44
2023-09-08T06:49:09.054Z,101903.25
2023-09-08T06:51:36.098Z,101913.94
2023-09-08T06:54:04.100Z,101915.72
2023-09-08T06:56:37.844Z,101907.53
2023-09-08T06:59:05.595Z,101900.28
2023-09-08T07:01:33.110Z,101899.31
2023-09-08T07:04:00.567Z,101906.38
2023-09-08T07:06:27.933Z,101898.22
2023-09-08T07:08:56.747Z,101902.69
2023-09-08T07:11:23.521Z,101901.69
2023-09-08T07:13:50.927Z,101911.50
2023-09-08T07:16:17.799Z,101911.38
2023-09-08T07:18:44.924Z,101911.25
2023-09-08T07:21:11.925Z,101913.81
2023-09-08T07:23:39.402Z,101913.72
2023-09-08T07:26:08.560Z,101919.00
2023-09-08T07:28:35.921Z,101917.03
2023-09-08T07:31:06.534Z,101918.63
2023-09-08T07:33:38.130Z,101914.78
2023-09-08T07:36:06.973Z,101911.91
2023-09-08T07:38:34.627Z,101915.38
2023-09-08T07:41:04.858Z,101916.09
2023-09-08T07:43:32.450Z,101909.59
2023-09-08T07:45:59.544Z,101922.06
2023-09-08T07:48:26.598Z,101918.25
2023-09-08T07:50:53.569Z,101919.00
2023-09-08T07:53:20.330Z,101925.00
2023-09-08T07:55:47.112Z,101923.84
2023-09-08T07:58:13.811Z,101917.25
2023-09-08T08:00:42.090Z,101918.00
2023-09-08T08:03:09.726Z,101919.66
2023-09-08T08:05:37.209Z,101919.47
2023-09-08T08:08:04.100Z,101918.41
2023-09-08T08:10:31.424Z,101921.06
2023-09-08T08:12:58.303Z,101909.31
2023-09-08T08:15:39.385Z,101913.53
2023-09-08T08:18:07.385Z,101915.97
2023-09-08T08:20:37.731Z,101913.63
2023-09-08T08:23:06.273Z,101917.75
2023-09-08T08:25:33.788Z,101916.50
2023-09-08T08:28:02.080Z,101914.81
2023-09-08T08:30:29.499Z,101920.03
2023-09-08T08:32:56.531Z,101913.19
2023-09-08T08:35:23.445Z,101905.31
2023-09-08T08:38:08.600Z,101912.03
2023-09-08T08:40:39.459Z,101903.47
2023-09-08T08:43:06.489Z,101901.66
2023-09-08T08:45:34.068Z,101904.28
2023-09-08T08:51:03.722Z,101896.44
2023-09-08T08:53:33.442Z,101893.31
2023-09-08T08:56:02.478Z,101896.59
2023-09-08T08:58:32.423Z,101891.59
2023-09-08T09:01:01.076Z,101898.97
2023-09-08T09:03:29.428Z,101885.38
2023-09-08T09:05:56.264Z,101899.50
2023-09-08T09:08:27.706Z,101895.25
2023-09-08T09:11:14.466Z,101887.78
2023-09-08T09:13:41.936Z,101877.75
2023-09-08T09:16:14.703Z,101887.91
2023-09-08T09:19:11.518Z,101874.91
2023-09-08T09:21:52.264Z,101881.06
2023-09-08T09:24:30.685Z,101875.81
2023-09-08T09:26:58.264Z,101875.66
2023-09-08T09:29:24.977Z,101883.38
2023-09-08T09:32:07.773Z,101874.50
2023-09-08T09:35:04.758Z,101870.81
2023-09-08T09:37:32.260Z,101875.69
2023-09-08T09:40:01.089Z,101868.63
2023-09-08T09:42:29.392Z,101864.03
2023-09-08T09:44:56.297Z,101868.59
2023-09-08T09:47:23.695Z,101869.72
2023-09-08T09:49:50.707Z,101864.22
2023-09-08T09:52:27.210Z,101855.84
2023-09-08T09:54:58.049Z,101859.88
2023-09-08T09:57:26.014Z,101855.53
2023-09-08T09:59:54.817Z,101856.34
2023-09-08T10:02:22.773Z,101849.53
2023-09-08T10:04:51.358Z,101845.03
2023-09-08T10:07:19.075Z,101836.09
2023-09-08T10:09:46.264Z,101839.66
2023-09-08T10:12:16.998Z,101830.66
2023-09-08T10:14:44.760Z,101835.81
2023-09-08T10:17:17.517Z,101834.41
2023-09-08T10:19:51.429Z,101834.13
2023-09-08T10:22:23.694Z,101829.00
2023-09-08T10:24:54.900Z,101838.56
2023-09-08T10:27:23.382Z,101832.50
2023-09-08T10:29:51.192Z,101820.56
2023-09-08T10:32:19.637Z,101830.78
2023-09-08T10:34:47.251Z,101819.72
2023-09-08T10:37:28.914Z,101819.84
2023-09-08T10:39:55.912Z,101819.75
2023-09-08T10:42:30.527Z,101816.03
2023-09-08T10:45:00.191Z,101813.00
2023-09-08T10:47:31.887Z,101807.91
2023-09-08T10:50:01.537Z,101804.34
2023-09-08T10:52:28.697Z,101812.59
2023-09-08T10:54:56.966Z,101806.50
2023-09-08T10:57:26.412Z,101799.63
2023-09-08T10:59:53.638Z,101806.13
2023-09-08T11:02:40.173Z,101803.22
2023-09-08T11:05:15.013Z,101801.34
2023-09-08T11:07:44.524Z,101796.56
2023-09-08T11:10:12.627Z,101801.13
2023-09-08T11:12:39.736Z,101793.53
2023-09-08T11:15:09.720Z,101792.22
2023-09-08T11:17:43.666Z,101790.56
2023-09-08T11:20:11.955Z,101788.41
2023-09-08T11:22:40.598Z,101787.91
2023-09-08T11:25:09.065Z,101791.69
2023-09-08T11:27:36.118Z,101793.28
2023-09-08T11:30:03.132Z,101795.81
2023-09-08T11:32:34.325Z,101787.78
2023-09-08T11:35:10.291Z,101790.19
2023-09-08T11:37:43.719Z,101789.66
2023-09-08T11:40:13.652Z,101785.44
2023-09-08T11:42:45.251Z,101782.47
2023-09-08T11:45:19.378Z,101775.75
2023-09-08T11:47:46.378Z,101782.78
2023-09-08T11:50:16.902Z,101776.94
2023-09-08T11:52:50.347Z,101775.06
2023-09-08T11:55:18.460Z,101770.56
2023-09-08T11:57:47.905Z,101768.81
2023-09-08T12:00:18.443Z,101768.81
2023-09-08T12:02:46.510Z,101764.47
2023-09-08T12:05:26.369Z,101762.38
2023-09-08T12:07:54.970Z,101760.97
2023-09-08T12:10:23.021Z,101760.72
2023-09-08T12:12:54.710Z,101759.59
2023-09-08T12:15:51.204Z,101758.59
2023-09-08T12:18:18.311Z,101759.25
2023-09-08T12:20:45.873Z,101746.88
2023-09-08T12:23:22.736Z,101749.63
2023-09-08T12:25:51.803Z,101744.00
2023-09-08T12:28:20.512Z,101735.91
2023-09-08T12:30:47.952Z,101738.91
2023-09-08T12:33:16.354Z,101741.66
2023-09-08T12:35:49.438Z,101743.16
2023-09-08T12:38:16.201Z,101735.81
2023-09-08T12:40:42.903Z,101741.16
2023-09-08T12:43:21.256Z,101731.81
2023-09-08T12:45:54.542Z,101731.19
2023-09-08T12:48:21.333Z,101730.69
2023-09-08T12:50:49.422Z,101723.44
2023-09-08T12:53:18.176Z,101725.94
2023-09-08T12:55:45.083Z,101719.38
2023-09-08T12:58:11.708Z,101719.00
2023-09-08T13:00:38.474Z,101712.88
2023-09-08T13:03:05.697Z,101703.91
2023-09-08T13:05:35.379Z,101711.63
2023-09-08T13:08:02.152Z,101707.25
2023-09-08T13:10:28.992Z,101707.84
2023-09-08T13:12:56.001Z,101704.34
2023-09-08T13:15:24.994Z,101694.63
2023-09-08T13:17:52.435Z,101700.09
2023-09-08T13:20:19.550Z,101697.34
2023-09-08T13:22:46.406Z,101701.72
2023-09-08T13:25:13.234Z,101691.63
2023-09-08T13:27:45.885Z,101690.88
2023-09-08T13:30:14.955Z,101692.09
2023-09-08T13:32:42.039Z,101682.59
2023-09-08T13:35:09.277Z,101681.84
2023-09-08T13:37:36.005Z,101680.34
2023-09-08T13:40:05.661Z,101679.47
2023-09-08T13:42:33.591Z,101673.97
2023-09-08T13:45:00.710Z,101670.25
2023-09-08T13:47:28.818Z,101678.59
2023-09-08T13:49:58.380Z,101671.38
2023-09-08T13:52:27.568Z,101665.88
2023-09-08T13:55:19.255Z,101662.91
2023-09-08T13:57:43.671Z,101661.91
2023-09-08T14:00:16.377Z,101658.66
2023-09-08T14:02:49.463Z,101656.41
2023-09-08T14:05:19.483Z,101653.91
2023-09-08T14:07:55.972Z,101647.53
2023-09-08T14:12:54.429Z,101655.88
2023-09-08T14:15:23.959Z,101639.22
2023-09-08T14:17:51.496Z,101642.47
2023-09-08T14:20:18.160Z,101635.75
2023-09-08T14:22:45.002Z,101633.75
2023-09-08T14:25:11.728Z,101625.91
2023-09-08T14:27:38.952Z,101625.16
2023-09-08T14:30:06.943Z,101622.28
2023-09-08T14:32:33.867Z,101630.25
2023-09-08T14:35:00.547Z,101633.25
2023-09-08T14:37:48.680Z,101621.78
2023-09-08T14:40:16.450Z,101625.00
2023-09-08T14:42:43.162Z,101616.25
2023-09-08T14:45:10.371Z,101618.25
2023-09-08T14:47:37.241Z,101615.28
2023-09-08T14:50:04.537Z,101616.78
2023-09-08T14:52:31.319Z,101613.78
2023-09-08T14:54:58.258Z,101615.78
2023-09-08T14:57:24.981Z,101612.06
2023-09-08T14:59:55.384Z,101616.41
2023-09-08T15:02:23.649Z,101617.16
2023-09-08T15:04:50.539Z,101614.56
2023-09-08T15:07:17.471Z,101612.16
2023-09-08T15:09:44.141Z,101610.78
2023-09-08T15:12:11.262Z,101608.16
2023-09-08T15:14:37.946Z,101605.53
2023-09-08T15:17:06.268Z,101600.81
2023-09-08T15:19:33.428Z,101608.56
2023-09-08T15:22:00.337Z,101608.31
2023-09-08T15:24:27.066Z,101599.34
2023-09-08T15:26:54.723Z,101598.84
2023-09-08T15:29:21.541Z,101605.31
2023-09-08T15:31:49.961Z,101609.91
2023-09-08T15:34:16.905Z,101603.19
2023-09-08T15:36:43.682Z,101605.56
2023-09-08T15:39:10.442Z,101600.09
2023-09-08T15:41:37.172Z,101602.84
2023-09-08T15:44:04.170Z,101601.09
2023-09-08T15:46:31.137Z,101598.72
2023-09-08T15:48:57.965Z,101603.81
2023-09-08T15:51:24.674Z,101603.41
2023-09-08T15:53:51.490Z,101600.03
2023-09-08T15:56:18.267Z,101597.75
2023-09-08T15:58:45.073Z,101593.84
2023-09-08T16:01:13.321Z,101601.78
2023-09-08T16:03:40.862Z,101593.88
2023-09-08T16:06:09.286Z,101595.13
2023-09-08T16:08:37.828Z,101599.84
2023-09-08T16:11:04.563Z,101597.34
2023-09-08T16:13:32.481Z,101588.94
2023-09-08T16:16:00.162Z,101599.69
2023-09-08T16:18:27.276Z,101596.53
2023-09-08T16:20:54.101Z,101602.59
2023-09-08T16:23:21.474Z,101601.28
2023-09-08T16:25:48.169Z,101600.88
2023-09-08T16:28:14.871Z,101603.94
2023-09-08T16:30:41.805Z,101602.44
2023-09-08T16:33:08.691Z,101600.16
2023-09-08T16:35:35.960Z,101605.09
2023-09-08T16:38:03.551Z,101601.81
2023-09-08T16:40:30.200Z,101610.44
2023-09-08T16:43:17.384Z,101604.66
2023-09-08T16:45:45.449Z,101604.31
2023-09-08T16:48:14.739Z,101601.03
2023-09-08T16:50:41.497Z,101608.91
2023-09-08T16:53:09.266Z,101604.13
2023-09-08T16:55:36.099Z,101606.38
2023-09-08T16:58:02.941Z,101607.66
2023-09-08T17:00:29.786Z,101602.63
2023-09-08T17:02:56.631Z,101600.41
2023-09-08T17:05:23.569Z,101612.66
2023-09-08T17:07:52.212Z,101609.56
2023-09-08T17:10:19.226Z,101603.66
2023-09-08T17:12:46.201Z,101610.44
2023-09-08T17:15:13.026Z,101614.56
2023-09-08T17:17:40.348Z,101610.50
2023-09-08T17:20:09.092Z,101614.38
2023-09-08T17:22:36.167Z,101620.25
2023-09-08T17:25:04.263Z,101620.56
2023-09-08T17:27:32.095Z,101618.25
2023-09-08T17:30:00.390Z,101617.69
2023-09-08T17:32:27.413Z,101621.69
2023-09-08T17:34:55.555Z,101627.47
2023-09-08T17:37:24.560Z,101627.00
2023-09-08T17:39:51.340Z,101623.69
2023-09-08T17:42:18.142Z,101625.84
2023-09-08T17:44:45.526Z,101629.03
2023-09-08T17:47:14.314Z,101625.84
2023-09-08T17:49:41.170Z,101634.38
2023-09-08T17:52:08.081Z,101629.31
2023-09-08T17:54:35.116Z,101633.41
2023-09-08T17:57:02.092Z,101632.06
2023-09-08T17:59:28.808Z,101637.72
2023-09-08T18:01:55.765Z,101637.03
2023-09-08T18:04:44.196Z,101638.38
2023-09-08T18:07:11.344Z,101648.50
2023-09-08T18:09:38.343Z,101651.53
2023-09-08T18:12:05.762Z,101641.75
2023-09-08T18:14:32.571Z,101647.50
2023-09-08T18:16:59.563Z,101646.81
2023-09-08T18:19:26.357Z,101645.25
2023-09-08T18:21:53.136Z,101651.75
2023-09-08T18:24:19.838Z,101652.81
2023-09-08T18:26:46.784Z,101653.00
2023-09-08T18:29:13.534Z,101661.38
2023-09-08T18:31:42.159Z,101663.41
2023-09-08T18:34:09.959Z,101672.63
2023-09-08T18:36:38.344Z,101665.63
2023-09-08T18:39:10.813Z,101668.53
2023-09-08T18:41:39.239Z,101666.88
2023-09-08T18:44:06.106Z,101676.09
2023-09-08T18:46:33.671Z,101679.00
2023-09-08T18:49:00.410Z,101673.66
2023-09-08T18:51:27.235Z,101670.25
2023-09-08T18:53:58.204Z,101671.22
2023-09-08T18:56:24.910Z,101675.69
2023-09-08T18:58:51.782Z,101678.50
2023-09-08T19:01:19.038Z,101675.19
2023-09-08T19:03:45.942Z,101682.78
2023-09-08T19:06:12.947Z,101684.72
2023-09-08T19:08:39.889Z,101685.88
2023-09-08T19:11:06.856Z,101690.63
2023-09-08T19:13:33.717Z,101687.13
2023-09-08T19:16:00.649Z,101690.91
2023-09-08T19:18:27.540Z,101685.59
2023-09-08T19:20:57.266Z,101691.22
2023-09-08T19:23:24.481Z,101692.38
2023-09-08T19:25:52.661Z,101692.44
2023-09-08T19:28:19.526Z,101692.72
2023-09-08T19:30:49.111Z,101691.94
2023-09-08T19:33:17.700Z,101697.56
2023-09-08T19:35:45.953Z,101691.50
2023-09-08T19:38:12.914Z,101699.03
2023-09-08T19:40:40.108Z,101700.19
2023-09-08T19:43:07.410Z,101700.34
2023-09-08T19:45:37.455Z,101706.91
2023-09-08T19:48:06.755Z,101709.78
2023-09-08T19:50:34.156Z,101705.56
2023-09-08T19:53:01.000Z,101708.72
2023-09-08T19:55:28.274Z,101707.31
2023-09-08T19:57:55.173Z,101708.59
2023-09-08T20:00:22.397Z,101707.97
2023-09-08T20:02:49.254Z,101710.94
2023-09-08T20:05:16.512Z,101706.56
2023-09-08T20:07:44.939Z,101702.44
2023-09-08T20:10:12.756Z,101695.47
2023-09-08T20:12:42.429Z,101705.63
2023-09-08T20:15:10.065Z,101707.69
2023-09-08T20:17:37.007Z,101708.03
2023-09-08T20:20:04.190Z,101719.13
2023-09-08T20:22:31.289Z,101708.50
2023-09-08T20:24:58.183Z,101709.47
2023-09-08T20:27:26.448Z,101709.63
2023-09-08T20:29:57.069Z,101710.59
2023-09-08T20:32:25.106Z,101711.63
2023-09-08T20:34:52.082Z,101713.38
2023-09-08T20:37:19.992Z,101712.50
2023-09-08T20:39:46.895Z,101709.78
2023-09-08T20:42:13.892Z,101714.34
2023-09-08T20:44:41.230Z,101709.94
2023-09-08T20:47:08.658Z,101708.16
2023-09-08T20:49:35.557Z,101710.88
2023-09-08T20:52:02.442Z,101700.97
2023-09-08T20:54:29.855Z,101696.59
2023-09-08T20:56:57.295Z,101700.34
2023-09-08T20:59:42.722Z,101701.47
2023-09-08T21:02:10.116Z,101703.47
2023-09-08T21:04:36.912Z,101704.50
2023-09-08T21:07:05.354Z,101701.06
2023-09-08T21:09:32.098Z,101703.84
2023-09-08T21:11:59.006Z,101709.53
2023-09-08T21:14:25.743Z,101707.03
2023-09-08T21:16:52.572Z,101710.72
2023-09-08T21:19:20.739Z,101709.09
2023-09-08T21:21:47.914Z,101705.56
2023-09-08T21:24:14.751Z,101725.50
2023-09-08T21:26:41.719Z,101713.06
2023-09-08T21:29:10.079Z,101716.72
2023-09-08T21:31:37.432Z,101720.56
2023-09-08T21:34:04.837Z,101718.06
2023-09-08T21:36:32.140Z,101720.88
2023-09-08T21:39:01.260Z,101714.63
2023-09-08T21:41:29.798Z,101720.06
2023-09-08T21:43:56.976Z,101717.34
2023-09-08T21:46:23.848Z,101721.00
2023-09-08T21:48:50.644Z,101721.09
2023-09-08T21:51:17.582Z,101721.16
2023-09-08T21:53:44.500Z,101723.97
2023-09-08T21:56:11.415Z,101721.31
2023-09-08T21:58:39.909Z,101721.31
2023-09-08T22:01:08.312Z,101723.22
2023-09-08T22:03:35.633Z,101718.84
2023-09-08T22:06:03.536Z,101715.31
2023-09-08T22:08:30.525Z,101723.53
2023-09-08T22:11:06.199Z,101720.16
2023-09-08T22:13:52.166Z,101723.84
2023-09-08T22:16:19.173Z,101714.91
2023-09-08T22:18:46.128Z,101716.81
2023-09-08T22:21:32.705Z,101717.91
2023-09-08T22:23:59.708Z,101718.06
2023-09-08T22:26:26.597Z,101725.47
2023-09-08T22:28:53.525Z,101721.94
2023-09-08T22:31:20.367Z,101729.34
2023-09-08T22:33:48.641Z,101725.78
2023-09-08T22:36:15.803Z,101734.06
2023-09-08T22:38:42.763Z,101732.47
2023-09-08T22:41:09.645Z,101733.72
2023-09-08T22:43:36.755Z,101730.41
2023-09-08T22:46:04.263Z,101731.56
2023-09-08T22:48:32.449Z,101736.25
2023-09-08T22:51:00.309Z,101735.50
2023-09-08T22:53:28.571Z,101735.63
2023-09-08T22:55:55.387Z,101734.88
2023-09-08T22:58:22.397Z,101736.84
2023-09-08T23:00:49.199Z,101729.00
2023-09-08T23:03:16.053Z,101725.63
2023-09-08T23:05:43.588Z,101732.16
2023-09-08T23:08:10.838Z,101732.22
2023-09-08T23:10:37.563Z,101736.88
2023-09-08T23:13:04.433Z,101730.59
2023-09-08T23:15:31.202Z,101732.41
2023-09-08T23:17:58.335Z,101736.97
2023-09-08T23:20:25.268Z,101737.00
2023-09-08T23:22:52.013Z,101738.91
2023-09-08T23:25:18.763Z,101740.78
2023-09-08T23:27:45.702Z,101744.59
2023-09-08T23:30:13.114Z,101743.69
2023-09-08T23:32:41.024Z,101745.59
2023-09-08T23:35:09.564Z,101741.13
2023-09-08T23:37:36.473Z,101739.44
2023-09-08T23:40:05.987Z,101735.91
2023-09-08T23:42:32.779Z,101737.81
2023-09-08T23:44:59.566Z,101738.91
2023-09-08T23:47:26.466Z,101744.38
2023-09-08T23:49:53.203Z,101743.63
2023-09-08T23:52:20.108Z,101734.63
2023-09-08T23:54:46.799Z,101736.47
2023-09-08T23:57:32.264Z,101737.34
2023-09-08T23:59:59.162Z,101735.66
